Time;durP1;ratioP1;P1;durP2;ratioP2;P2;SDS_P1;SDS_P2;PMS_P1;PMS_P2;Temp;Humidity;BMP_temperature;BMP_pressure;BME280_temperature;BME280_humidity;BME280_pressure;Samples;Min_cycle;Max_cycle;Signal;HPM_P1;HPM_P2
2023/05/20 00:02:02;;;;;;;;;;;12.50;94.80;;;;;;5028816;28;19919;-75
2023/05/20 00:04:27;;;;;;;;;;;12.60;93.70;;;;;;5031327;28;20414;-74
2023/05/20 00:06:53;;;;;;;;;;;12.60;93.40;;;;;;5027043;28;19917;-74
2023/05/20 00:09:19;;;;;;;;;;;12.50;95.60;;;;;;5030335;28;19978;-75
2023/05/20 00:11:45;;;;;;;;;;;12.50;96.10;;;;;;5036143;28;20020;-74
2023/05/20 00:14:10;;;;;;;;;;;12.40;94.50;;;;;;5022116;28;19914;-75
2023/05/20 00:16:36;;;;;;;;;;;12.50;93.20;;;;;;5031329;28;19955;-75
2023/05/20 00:19:02;;;;;;;;;;;12.50;93.10;;;;;;5032715;28;19909;-75
2023/05/20 00:21:28;;;;;;;;;;;12.50;92.90;;;;;;5029823;28;19909;-74
2023/05/20 00:23:54;;;;;;;;;;;12.50;93.20;;;;;;5037370;28;20373;-74
2023/05/20 00:26:20;;;;;;;;;;;12.50;93.60;;;;;;5032771;28;19987;-74
2023/05/20 00:28:45;;;;;;;;;;;12.30;96.10;;;;;;5028305;28;20363;-74
2023/05/20 00:31:11;;;;;;;;;;;12.30;95.90;;;;;;5033502;28;19909;-75
2023/05/20 00:33:36;;;;;;;;;;;12.20;96.60;;;;;;5034441;28;19979;-75
2023/05/20 00:36:02;;;;;;;;;;;12.00;97.80;;;;;;5036177;28;19909;-74
2023/05/20 00:38:27;;;;;;;;;;;11.90;98.30;;;;;;5036034;28;19913;-75
2023/05/20 00:40:53;;;;;;;;;;;11.80;98.30;;;;;;5031709;28;19916;-75
2023/05/20 00:43:19;;;;;;;;;;;11.70;98.50;;;;;;5033057;28;19920;-74
2023/05/20 00:45:45;;;;;;;;;;;11.70;98.50;;;;;;5031651;28;19920;-74
2023/05/20 00:48:11;;;;;;;;;;;11.80;96.80;;;;;;5033656;28;19913;-75
2023/05/20 00:50:36;;;;;;;;;;;11.70;97.00;;;;;;5030946;28;19909;-74
2023/05/20 00:53:02;;;;;;;;;;;11.80;96.00;;;;;;5023928;28;19917;-74
2023/05/20 00:55:28;;;;;;;;;;;11.70;96.00;;;;;;5035249;28;19997;-74
2023/05/20 00:57:53;;;;;;;;;;;11.80;95.50;;;;;;5037220;28;19937;-75
2023/05/20 01:00:19;;;;;;;;;;;11.80;95.00;;;;;;5039047;28;20000;-74
2023/05/20 01:02:44;;;;;;;;;;;11.80;94.80;;;;;;5036038;28;19917;-75
2023/05/20 01:05:10;;;;;;;;;;;11.80;95.20;;;;;;5023265;28;19920;-75
2023/05/20 01:07:35;;;;;;;;;;;11.80;94.60;;;;;;5031468;28;19909;-74
2023/05/20 01:10:01;;;;;;;;;;;11.80;95.30;;;;;;5031218;28;20276;-75
2023/05/20 01:12:30;;;;;;;;;;;11.80;95.00;;;;;;5029810;28;19944;-74
2023/05/20 01:15:02;;;;;;;;;;;11.80;95.00;;;;;;5036649;28;19917;-74
2023/05/20 01:17:30;;;;;;;;;;;11.90;95.00;;;;;;5023284;28;19990;-74
2023/05/20 01:19:57;;;;;;;;;;;11.90;95.10;;;;;;5027818;28;19963;-74
2023/05/20 01:22:24;;;;;;;;;;;11.90;95.10;;;;;;5026574;28;19983;-75
2023/05/20 01:24:52;;;;;;;;;;;12.00;95.10;;;;;;5038986;28;19921;-75
2023/05/20 01:27:21;;;;;;;;;;;11.90;94.30;;;;;;5027821;28;20369;-74
2023/05/20 01:29:49;;;;;;;;;;;11.90;94.00;;;;;;5037661;28;19916;-74
2023/05/20 01:32:26;;;;;;;;;;;11.90;94.30;;;;;;5031078;28;19940;-74
2023/05/20 01:34:52;;;;;;;;;;;11.90;94.60;;;;;;5029623;28;19936;-74
2023/05/20 01:37:18;;;;;;;;;;;11.90;94.60;;;;;;5032692;28;19913;-74
2023/05/20 01:39:45;;;;;;;;;;;11.80;95.70;;;;;;5029824;28;20326;-75
2023/05/20 01:42:12;;;;;;;;;;;11.80;95.30;;;;;;5036050;28;19919;-74
2023/05/20 01:44:38;;;;;;;;;;;11.80;94.70;;;;;;5034572;28;20310;-75
2023/05/20 01:47:04;;;;;;;;;;;11.90;94.40;;;;;;5032496;28;19909;-75
2023/05/20 01:49:29;;;;;;;;;;;11.90;94.40;;;;;;5030282;28;19909;-75
2023/05/20 01:51:55;;;;;;;;;;;11.90;94.70;;;;;;5021092;28;19917;-74
2023/05/20 01:54:20;;;;;;;;;;;11.90;94.80;;;;;;5030094;28;19913;-75
2023/05/20 01:56:46;;;;;;;;;;;11.90;95.00;;;;;;5032395;28;19979;-74
2023/05/20 01:59:11;;;;;;;;;;;11.90;94.80;;;;;;5039164;28;19996;-75
2023/05/20 02:01:37;;;;;;;;;;;11.90;95.00;;;;;;5036339;28;19917;-75
2023/05/20 02:04:02;;;;;;;;;;;11.90;94.80;;;;;;5030293;28;19917;-74
2023/05/20 02:06:28;;;;;;;;;;;11.90;94.80;;;;;;5035224;28;19909;-74
2023/05/20 02:08:53;;;;;;;;;;;11.90;95.00;;;;;;5029657;28;19908;-74
2023/05/20 02:11:20;;;;;;;;;;;11.90;95.30;;;;;;5021553;28;19941;-74
2023/05/20 02:13:45;;;;;;;;;;;11.90;95.30;;;;;;5029281;28;19959;-74
2023/05/20 02:16:11;;;;;;;;;;;11.90;94.90;;;;;;5033449;28;20370;-74
2023/05/20 02:18:37;;;;;;;;;;;11.80;94.60;;;;;;5024548;28;19956;-74
2023/05/20 02:21:03;;;;;;;;;;;11.80;94.30;;;;;;5034523;28;19919;-75
2023/05/20 02:23:29;;;;;;;;;;;11.80;94.80;;;;;;5031108;28;20134;-75
2023/05/20 02:25:54;;;;;;;;;;;11.80;95.10;;;;;;5033303;28;19971;-74
2023/05/20 02:28:20;;;;;;;;;;;11.80;94.80;;;;;;5026503;28;19909;-74
2023/05/20 02:30:45;;;;;;;;;;;11.70;94.70;;;;;;5026344;28;19913;-74
2023/05/20 02:33:12;;;;;;;;;;;11.70;94.30;;;;;;5027704;28;19913;-74
2023/05/20 02:35:38;;;;;;;;;;;11.60;94.70;;;;;;5030002;28;20298;-74
2023/05/20 02:38:04;;;;;;;;;;;11.50;96.00;;;;;;5030623;28;20043;-75
2023/05/20 02:40:30;;;;;;;;;;;11.30;97.00;;;;;;5030004;28;20004;-74
2023/05/20 02:42:55;;;;;;;;;;;11.20;96.70;;;;;;5029708;28;20507;-75
2023/05/20 02:45:21;;;;;;;;;;;11.10;97.70;;;;;;5034466;28;19912;-75
2023/05/20 02:47:46;;;;;;;;;;;11.10;97.20;;;;;;5029565;28;19932;-75
2023/05/20 02:50:12;;;;;;;;;;;11.20;96.60;;;;;;5029486;28;19920;-74
2023/05/20 02:52:38;;;;;;;;;;;11.20;96.10;;;;;;5021136;28;19905;-74
2023/05/20 02:55:05;;;;;;;;;;;11.30;95.80;;;;;;5028176;28;19920;-74
2023/05/20 02:57:31;;;;;;;;;;;11.30;95.50;;;;;;5028741;28;19909;-74
2023/05/20 02:59:56;;;;;;;;;;;11.30;95.70;;;;;;5037899;28;19922;-74
2023/05/20 03:02:22;;;;;;;;;;;11.20;96.10;;;;;;5029256;28;19909;-74
2023/05/20 03:04:47;;;;;;;;;;;11.20;95.80;;;;;;5029426;28;19916;-74
2023/05/20 03:07:16;;;;;;;;;;;11.20;95.50;;;;;;5026186;28;19997;-75
2023/05/20 03:09:41;;;;;;;;;;;11.20;95.40;;;;;;5030362;28;19909;-75
2023/05/20 03:12:07;;;;;;;;;;;11.30;95.40;;;;;;5028396;28;20393;-75
2023/05/20 03:14:33;;;;;;;;;;;11.20;95.50;;;;;;5030283;28;19916;-74
2023/05/20 03:16:58;;;;;;;;;;;11.20;95.70;;;;;;5034864;28;19915;-74
2023/05/20 03:19:24;;;;;;;;;;;11.20;95.70;;;;;;5032459;28;19909;-74
2023/05/20 03:21:50;;;;;;;;;;;11.30;96.00;;;;;;5025431;28;19906;-74
2023/05/20 03:24:15;;;;;;;;;;;11.30;96.20;;;;;;5029475;28;19939;-75
2023/05/20 03:26:41;;;;;;;;;;;11.30;95.90;;;;;;5032508;28;20386;-75
2023/05/20 03:29:07;;;;;;;;;;;11.30;96.10;;;;;;5024889;28;19909;-75
2023/05/20 03:31:33;;;;;;;;;;;11.30;96.10;;;;;;5031401;28;19905;-75
2023/05/20 03:33:58;;;;;;;;;;;11.30;95.90;;;;;;5031321;28;19913;-75
2023/05/20 03:36:24;;;;;;;;;;;11.30;95.80;;;;;;5029779;28;19997;-75
2023/05/20 03:38:50;;;;;;;;;;;11.30;95.60;;;;;;5031006;28;20501;-74
2023/05/20 03:41:15;;;;;;;;;;;11.30;95.30;;;;;;5029079;28;21694;-75
2023/05/20 03:43:41;;;;;;;;;;;11.30;95.40;;;;;;5035961;28;19913;-74
2023/05/20 03:46:06;;;;;;;;;;;11.30;95.70;;;;;;5032548;28;20661;-74
2023/05/20 03:48:32;;;;;;;;;;;11.30;96.00;;;;;;5035318;28;19919;-75
2023/05/20 03:50:57;;;;;;;;;;;11.30;96.00;;;;;;5034211;28;19999;-75
2023/05/20 03:53:23;;;;;;;;;;;11.30;95.90;;;;;;5032777;28;19909;-75
2023/05/20 03:55:48;;;;;;;;;;;11.30;96.00;;;;;;5032514;28;19920;-75
2023/05/20 03:58:14;;;;;;;;;;;11.40;95.80;;;;;;5032794;28;19905;-75
2023/05/20 04:00:40;;;;;;;;;;;11.40;95.80;;;;;;5031030;28;19905;-74
2023/05/20 04:03:05;;;;;;;;;;;11.40;96.00;;;;;;5032262;28;20302;-74
2023/05/20 04:05:31;;;;;;;;;;;11.40;96.50;;;;;;5032363;28;19917;-74
2023/05/20 04:07:57;;;;;;;;;;;11.50;96.50;;;;;;5019835;28;19913;-75
2023/05/20 04:10:22;;;;;;;;;;;11.50;96.50;;;;;;5027132;28;19969;-74
2023/05/20 04:12:48;;;;;;;;;;;11.50;96.60;;;;;;5032082;28;19966;-74
2023/05/20 04:15:14;;;;;;;;;;;11.60;96.70;;;;;;5032565;28;19916;-76
2023/05/20 04:17:40;;;;;;;;;;;11.60;96.70;;;;;;5038064;28;19909;-75
2023/05/20 04:20:06;;;;;;;;;;;11.70;96.60;;;;;;5031889;28;19913;-75
2023/05/20 04:22:32;;;;;;;;;;;11.70;96.20;;;;;;5031605;28;20588;-75
2023/05/20 04:24:58;;;;;;;;;;;11.80;96.20;;;;;;5036285;28;19923;-75
2023/05/20 04:27:24;;;;;;;;;;;11.80;96.20;;;;;;5031542;28;19909;-75
2023/05/20 04:29:51;;;;;;;;;;;11.80;96.60;;;;;;5033348;28;20011;-75
2023/05/20 04:32:17;;;;;;;;;;;11.80;96.50;;;;;;5031765;28;19909;-75
2023/05/20 04:34:44;;;;;;;;;;;11.80;96.80;;;;;;5035800;28;20307;-75
2023/05/20 04:37:09;;;;;;;;;;;11.80;96.80;;;;;;5031786;28;19917;-75
2023/05/20 04:39:35;;;;;;;;;;;11.90;96.50;;;;;;5031565;28;19915;-75
2023/05/20 04:42:01;;;;;;;;;;;12.00;96.40;;;;;;5030994;28;19913;-75
2023/05/20 04:44:28;;;;;;;;;;;12.10;96.30;;;;;;5031188;28;19909;-75
2023/05/20 04:46:54;;;;;;;;;;;12.10;96.40;;;;;;5030990;28;19948;-75
2023/05/20 04:49:20;;;;;;;;;;;12.20;96.30;;;;;;5031532;28;19959;-75
2023/05/20 04:51:48;;;;;;;;;;;12.20;96.20;;;;;;5031441;28;20383;-75
2023/05/20 04:54:16;;;;;;;;;;;12.30;96.10;;;;;;5030029;28;19905;-74
2023/05/20 04:56:42;;;;;;;;;;;12.40;96.10;;;;;;5032900;28;19952;-74
2023/05/20 04:59:09;;;;;;;;;;;12.40;95.90;;;;;;5031564;28;19955;-75
2023/05/20 05:01:35;;;;;;;;;;;12.50;95.80;;;;;;5037139;28;19966;-74
2023/05/20 05:04:01;;;;;;;;;;;12.50;95.80;;;;;;5030032;28;20337;-74
2023/05/20 05:06:27;;;;;;;;;;;12.60;96.00;;;;;;5034722;28;19916;-75
2023/05/20 05:08:52;;;;;;;;;;;12.70;95.90;;;;;;5031467;28;19963;-75
2023/05/20 05:11:18;;;;;;;;;;;12.70;95.90;;;;;;5030273;28;20349;-74
2023/05/20 05:13:43;;;;;;;;;;;12.80;95.80;;;;;;5035606;28;19908;-75
2023/05/20 05:16:09;;;;;;;;;;;12.90;95.90;;;;;;5038442;28;19909;-75
2023/05/20 05:18:34;;;;;;;;;;;12.90;95.60;;;;;;5028793;28;19948;-75
2023/05/20 05:21:00;;;;;;;;;;;13.00;95.80;;;;;;5022672;28;19919;-75
2023/05/20 05:23:26;;;;;;;;;;;13.10;95.60;;;;;;5030896;28;20310;-75
2023/05/20 05:25:51;;;;;;;;;;;13.10;95.30;;;;;;5030854;28;20402;-75
2023/05/20 05:28:17;;;;;;;;;;;13.20;95.60;;;;;;5033272;28;20363;-75
2023/05/20 05:30:42;;;;;;;;;;;13.30;95.40;;;;;;5037403;28;19909;-76
2023/05/20 05:33:08;;;;;;;;;;;13.40;95.30;;;;;;5035314;28;19992;-76
2023/05/20 05:35:34;;;;;;;;;;;13.40;94.60;;;;;;5029719;28;19917;-76
2023/05/20 05:37:59;;;;;;;;;;;13.40;94.60;;;;;;5030587;28;19913;-76
2023/05/20 05:40:25;;;;;;;;;;;13.50;94.90;;;;;;5033228;28;19913;-76
2023/05/20 05:42:51;;;;;;;;;;;13.60;94.40;;;;;;5032868;28;19913;-76
2023/05/20 05:45:16;;;;;;;;;;;13.70;94.50;;;;;;5038456;28;19966;-75
2023/05/20 05:47:42;;;;;;;;;;;13.70;94.40;;;;;;5032478;28;19913;-76
2023/05/20 05:50:10;;;;;;;;;;;13.90;94.70;;;;;;5027097;28;20383;-76
2023/05/20 05:52:36;;;;;;;;;;;13.90;93.90;;;;;;5025653;28;19970;-75
2023/05/20 05:55:01;;;;;;;;;;;14.00;93.90;;;;;;5026271;28;20352;-75
2023/05/20 05:57:27;;;;;;;;;;;14.10;93.90;;;;;;5031343;28;19909;-75
2023/05/20 05:59:52;;;;;;;;;;;14.20;93.40;;;;;;5038007;28;19909;-74
2023/05/20 06:02:18;;;;;;;;;;;14.30;93.40;;;;;;5039464;28;19996;-75
2023/05/20 06:04:43;;;;;;;;;;;14.30;93.10;;;;;;5031109;28;19924;-75
2023/05/20 06:07:09;;;;;;;;;;;14.40;92.90;;;;;;5035447;28;20140;-74
2023/05/20 06:09:35;;;;;;;;;;;14.50;92.40;;;;;;5036398;28;19913;-76
2023/05/20 06:12:01;;;;;;;;;;;14.50;92.00;;;;;;5030881;28;19913;-77
2023/05/20 06:14:26;;;;;;;;;;;14.60;91.90;;;;;;5031955;28;19913;-76
2023/05/20 06:16:52;;;;;;;;;;;14.70;91.30;;;;;;5030432;28;19967;-75
2023/05/20 06:19:17;;;;;;;;;;;14.80;91.60;;;;;;5032561;28;19975;-75
2023/05/20 06:21:43;;;;;;;;;;;14.80;91.30;;;;;;5029395;28;19905;-75
2023/05/20 06:24:08;;;;;;;;;;;14.90;91.00;;;;;;5029183;28;20516;-77
2023/05/20 06:26:34;;;;;;;;;;;15.00;90.60;;;;;;5023382;28;19925;-76
2023/05/20 06:28:59;;;;;;;;;;;15.10;90.00;;;;;;5034387;28;19966;-77
2023/05/20 06:31:25;;;;;;;;;;;15.10;90.00;;;;;;5026819;28;20390;-76
2023/05/20 06:33:50;;;;;;;;;;;15.20;89.90;;;;;;5031360;28;19913;-76
2023/05/20 06:36:16;;;;;;;;;;;15.30;89.40;;;;;;5030623;28;19909;-77
2023/05/20 06:38:41;;;;;;;;;;;15.40;89.30;;;;;;5030211;28;19920;-76
2023/05/20 06:41:07;;;;;;;;;;;15.50;89.20;;;;;;5027544;28;19913;-76
2023/05/20 06:43:33;;;;;;;;;;;15.60;88.40;;;;;;5036500;28;19908;-75
2023/05/20 06:45:58;;;;;;;;;;;15.70;88.60;;;;;;5033591;28;19925;-76
2023/05/20 06:48:24;;;;;;;;;;;15.80;87.50;;;;;;5034409;28;19952;-77
2023/05/20 06:50:49;;;;;;;;;;;15.90;87.50;;;;;;5029336;28;19909;-77
2023/05/20 06:53:15;;;;;;;;;;;16.00;87.20;;;;;;5025985;28;19916;-77
2023/05/20 06:55:41;;;;;;;;;;;16.10;87.10;;;;;;5029109;28;20366;-77
2023/05/20 06:58:06;;;;;;;;;;;16.20;86.40;;;;;;5034744;28;19986;-76
2023/05/20 07:00:32;;;;;;;;;;;16.40;86.10;;;;;;5035106;28;19948;-77
2023/05/20 07:02:57;;;;;;;;;;;16.50;86.10;;;;;;5034115;28;19963;-77
2023/05/20 07:05:23;;;;;;;;;;;16.50;86.10;;;;;;5032737;28;19916;-77
2023/05/20 07:07:49;;;;;;;;;;;16.70;85.00;;;;;;5033803;28;19916;-77
2023/05/20 07:10:14;;;;;;;;;;;16.80;84.20;;;;;;5029676;28;19916;-77
2023/05/20 07:12:40;;;;;;;;;;;16.90;83.60;;;;;;5026849;28;19908;-77
2023/05/20 07:15:06;;;;;;;;;;;17.00;83.10;;;;;;5032059;28;19912;-78
2023/05/20 07:17:31;;;;;;;;;;;17.10;82.40;;;;;;5033259;28;19913;-78
2023/05/20 07:19:57;;;;;;;;;;;17.20;82.70;;;;;;5036063;28;20000;-78
2023/05/20 07:22:22;;;;;;;;;;;17.30;77.80;;;;;;5037362;28;19921;-80
2023/05/20 07:24:48;;;;;;;;;;;17.40;79.70;;;;;;5032385;28;20467;-78
2023/05/20 07:27:13;;;;;;;;;;;17.50;80.80;;;;;;5038324;28;19913;-77
2023/05/20 07:29:39;;;;;;;;;;;17.60;78.70;;;;;;5033805;28;19966;-78
2023/05/20 07:32:04;;;;;;;;;;;17.70;77.70;;;;;;5027183;28;19917;-78
2023/05/20 07:34:30;;;;;;;;;;;17.70;77.70;;;;;;5031201;28;19916;-77
2023/05/20 07:36:56;;;;;;;;;;;17.80;76.10;;;;;;5029333;28;20401;-80
2023/05/20 07:39:22;;;;;;;;;;;17.90;78.50;;;;;;5033135;28;20375;-79
2023/05/20 07:41:48;;;;;;;;;;;18.00;79.60;;;;;;5029965;28;19968;-78
2023/05/20 07:44:14;;;;;;;;;;;18.10;76.90;;;;;;5041849;28;19913;-78
2023/05/20 07:46:40;;;;;;;;;;;18.10;75.40;;;;;;5031702;28;19919;-78
2023/05/20 07:49:06;;;;;;;;;;;18.20;76.00;;;;;;5035906;28;20364;-78
2023/05/20 07:51:32;;;;;;;;;;;18.20;73.10;;;;;;5042593;28;19913;-82
2023/05/20 07:53:57;;;;;;;;;;;18.20;73.20;;;;;;5030512;28;20355;-79
2023/05/20 07:56:23;;;;;;;;;;;18.30;73.60;;;;;;5039393;28;19911;-78
2023/05/20 07:58:53;;;;;;;;;;;18.40;75.50;;;;;;5033829;28;19974;-81
2023/05/20 08:01:18;;;;;;;;;;;18.60;76.30;;;;;;5028900;28;19951;-82
2023/05/20 08:03:44;;;;;;;;;;;18.70;75.90;;;;;;5037826;28;19964;-81
2023/05/20 08:06:10;;;;;;;;;;;18.80;76.10;;;;;;5036994;28;19917;-78
2023/05/20 08:08:35;;;;;;;;;;;18.90;75.70;;;;;;5034924;28;19917;-80
2023/05/20 08:11:01;;;;;;;;;;;19.00;75.00;;;;;;5032185;28;19917;-77
2023/05/20 08:13:26;;;;;;;;;;;19.00;74.30;;;;;;5031727;28;19936;-77
2023/05/20 08:15:53;;;;;;;;;;;19.10;74.70;;;;;;5027170;28;19913;-78
2023/05/20 08:18:19;;;;;;;;;;;19.20;75.80;;;;;;5033196;28;20402;-81
2023/05/20 08:20:44;;;;;;;;;;;19.20;74.70;;;;;;5040273;28;19904;-81
2023/05/20 08:23:10;;;;;;;;;;;19.30;74.60;;;;;;5032973;28;20681;-80
2023/05/20 08:25:37;;;;;;;;;;;19.40;74.20;;;;;;5037346;28;19928;-80
2023/05/20 08:28:04;;;;;;;;;;;19.50;74.60;;;;;;5033407;28;19905;-81
2023/05/20 08:30:30;;;;;;;;;;;19.50;74.40;;;;;;5032454;28;20008;-77
2023/05/20 08:32:55;;;;;;;;;;;19.70;74.30;;;;;;5035845;28;20003;-77
2023/05/20 08:35:24;;;;;;;;;;;19.70;74.10;;;;;;5032635;28;19916;-79
2023/05/20 08:37:52;;;;;;;;;;;19.90;74.20;;;;;;5025062;28;19948;-78
2023/05/20 08:40:19;;;;;;;;;;;19.90;74.40;;;;;;5033533;28;19909;-77
2023/05/20 08:42:46;;;;;;;;;;;20.00;74.00;;;;;;5032106;28;19924;-78
2023/05/20 08:45:13;;;;;;;;;;;20.10;73.90;;;;;;5034502;28;19950;-79
2023/05/20 08:47:40;;;;;;;;;;;20.20;73.10;;;;;;5035974;28;20011;-80
2023/05/20 08:50:07;;;;;;;;;;;20.30;73.40;;;;;;5033752;28;20000;-78
2023/05/20 08:52:33;;;;;;;;;;;20.40;73.50;;;;;;5034736;28;19913;-77
2023/05/20 08:54:59;;;;;;;;;;;20.50;73.20;;;;;;5034993;28;19936;-78
2023/05/20 08:57:25;;;;;;;;;;;20.50;71.80;;;;;;5030255;28;19909;-78
2023/05/20 08:59:50;;;;;;;;;;;20.60;71.40;;;;;;5028937;28;19920;-80
2023/05/20 09:02:16;;;;;;;;;;;20.70;72.40;;;;;;5033181;28;19908;-81
2023/05/20 09:04:42;;;;;;;;;;;20.80;73.10;;;;;;5032087;28;19925;-80
2023/05/20 09:07:07;;;;;;;;;;;21.00;72.80;;;;;;5034936;28;19916;-79
2023/05/20 09:09:34;;;;;;;;;;;21.10;71.10;;;;;;5028648;28;20389;-79
2023/05/20 09:12:00;;;;;;;;;;;21.20;71.60;;;;;;5030545;28;19916;-77
2023/05/20 09:14:28;;;;;;;;;;;21.30;71.10;;;;;;5040167;28;19919;-80
2023/05/20 09:16:54;;;;;;;;;;;21.40;69.60;;;;;;5032246;28;20321;-83
2023/05/20 09:19:23;;;;;;;;;;;21.40;68.90;;;;;;5047075;28;19917;-81
2023/05/20 09:21:50;;;;;;;;;;;21.50;69.20;;;;;;5035467;28;19944;-83
2023/05/20 09:24:18;;;;;;;;;;;21.60;69.60;;;;;;5037068;28;19913;-85
2023/05/20 09:26:44;;;;;;;;;;;21.70;69.90;;;;;;5033405;28;20008;-81
2023/05/20 09:29:10;;;;;;;;;;;21.80;69.80;;;;;;5030711;28;19912;-81
2023/05/20 09:31:37;;;;;;;;;;;21.90;70.10;;;;;;5031305;28;19939;-80
2023/05/20 09:34:03;;;;;;;;;;;22.10;70.20;;;;;;5032579;28;19912;-80
2023/05/20 09:36:33;;;;;;;;;;;22.20;69.30;;;;;;5031136;28;20301;-80
2023/05/20 09:39:02;;;;;;;;;;;22.30;70.30;;;;;;5029763;28;19921;-80
2023/05/20 09:41:31;;;;;;;;;;;22.50;68.90;;;;;;5039969;28;20310;-79
2023/05/20 09:43:56;;;;;;;;;;;22.60;68.40;;;;;;5028794;28;19913;-78
2023/05/20 09:46:24;;;;;;;;;;;22.70;67.10;;;;;;5032591;28;20003;-79
2023/05/20 09:48:49;;;;;;;;;;;22.90;67.30;;;;;;5036152;28;20024;-79
2023/05/20 09:51:16;;;;;;;;;;;23.00;66.40;;;;;;5039401;28;19942;-79
2023/05/20 09:53:42;;;;;;;;;;;23.20;66.00;;;;;;5036848;28;19909;-79
2023/05/20 09:56:07;;;;;;;;;;;23.40;66.60;;;;;;5041560;28;19966;-79
2023/05/20 09:58:33;;;;;;;;;;;23.60;65.70;;;;;;5035330;28;19909;-79
2023/05/20 10:01:00;;;;;;;;;;;23.90;66.20;;;;;;5036512;28;19912;-79
2023/05/20 10:03:26;;;;;;;;;;;24.10;64.40;;;;;;5034482;28;19917;-79
2023/05/20 10:06:01;;;;;;;;;;;24.40;64.10;;;;;;5032687;28;20421;-79
2023/05/20 10:08:36;;;;;;;;;;;24.50;64.30;;;;;;5030360;28;20374;-78
2023/05/20 10:11:20;;;;;;;;;;;24.70;62.70;;;;;;5035679;28;19916;-78
2023/05/20 10:14:12;;;;;;;;;;;25.00;63.00;;;;;;5031154;28;19946;-78
2023/05/20 10:16:56;;;;;;;;;;;25.40;62.40;;;;;;5014414;28;19909;-78
2023/05/20 10:19:22;;;;;;;;;;;25.90;60.30;;;;;;5036825;28;19909;-78
2023/05/20 10:22:01;;;;;;;;;;;26.00;59.90;;;;;;5025514;28;19950;-81
2023/05/20 10:24:31;;;;;;;;;;;26.40;59.00;;;;;;5023919;28;19917;-79
2023/05/20 10:26:57;;;;;;;;;;;26.90;59.10;;;;;;5020931;28;19909;-78
2023/05/20 10:29:22;;;;;;;;;;;27.40;58.10;;;;;;5028011;28;19909;-78
2023/05/20 10:31:51;;;;;;;;;;;27.90;55.00;;;;;;5038395;28;19912;-78
2023/05/20 10:34:21;;;;;;;;;;;28.30;55.00;;;;;;5035220;28;20563;-78
2023/05/20 10:36:52;;;;;;;;;;;28.90;54.50;;;;;;5037944;28;20361;-78
2023/05/20 10:39:18;;;;;;;;;;;29.20;53.30;;;;;;5035258;28;20022;-78
2023/05/20 10:41:44;;;;;;;;;;;29.50;53.00;;;;;;5029129;28;20018;-78
2023/05/20 10:44:10;;;;;;;;;;;29.80;52.50;;;;;;5029531;28;20004;-78
2023/05/20 10:46:35;;;;;;;;;;;30.20;52.00;;;;;;5039252;28;19929;-78
2023/05/20 10:49:01;;;;;;;;;;;30.50;50.70;;;;;;5036246;28;19916;-78
2023/05/20 10:51:34;;;;;;;;;;;30.40;50.60;;;;;;5037812;28;19912;-77
2023/05/20 10:54:00;;;;;;;;;;;30.40;50.70;;;;;;5034295;28;19909;-78
2023/05/20 10:56:26;;;;;;;;;;;30.60;50.80;;;;;;5034770;28;20302;-78
2023/05/20 10:58:52;;;;;;;;;;;30.70;51.50;;;;;;5035532;28;20400;-78
2023/05/20 11:01:18;;;;;;;;;;;30.70;51.10;;;;;;5034999;28;19909;-78
2023/05/20 11:03:45;;;;;;;;;;;30.60;50.70;;;;;;5031590;28;20069;-78
2023/05/20 11:06:14;;;;;;;;;;;30.70;52.00;;;;;;5035508;28;19928;-78
2023/05/20 11:08:39;;;;;;;;;;;30.90;49.70;;;;;;5031302;28;19971;-78
2023/05/20 11:11:05;;;;;;;;;;;31.00;50.70;;;;;;5035290;28;19948;-78
2023/05/20 11:13:31;;;;;;;;;;;30.80;50.40;;;;;;5031764;28;19915;-77
2023/05/20 11:15:58;;;;;;;;;;;30.60;50.50;;;;;;5029442;28;19939;-78
2023/05/20 11:18:25;;;;;;;;;;;30.10;51.40;;;;;;5027001;28;19910;-78
2023/05/20 11:20:53;;;;;;;;;;;29.50;51.80;;;;;;5035158;28;20349;-78
2023/05/20 11:23:18;;;;;;;;;;;28.90;52.50;;;;;;5031371;28;19909;-78
2023/05/20 11:25:44;;;;;;;;;;;28.60;54.20;;;;;;5031129;28;19924;-77
2023/05/20 11:28:13;;;;;;;;;;;28.60;54.30;;;;;;5022231;28;19905;-77
2023/05/20 11:30:40;;;;;;;;;;;28.90;54.30;;;;;;5028410;28;20027;-78
2023/05/20 11:33:05;;;;;;;;;;;29.50;52.80;;;;;;5037411;28;20374;-78
2023/05/20 11:35:32;;;;;;;;;;;30.10;51.30;;;;;;5029022;28;19920;-78
2023/05/20 11:38:01;;;;;;;;;;;30.20;51.10;;;;;;5034965;28;19948;-77
2023/05/20 11:40:27;;;;;;;;;;;30.30;51.10;;;;;;5031293;28;19951;-78
2023/05/20 11:42:53;;;;;;;;;;;30.00;51.20;;;;;;5029358;28;20329;-77
2023/05/20 11:45:18;;;;;;;;;;;29.70;51.60;;;;;;5030267;28;20405;-77
2023/05/20 11:47:44;;;;;;;;;;;29.40;51.50;;;;;;5027222;28;19909;-77
2023/05/20 11:50:15;;;;;;;;;;;29.00;52.10;;;;;;5036400;28;19915;-78
2023/05/20 11:52:41;;;;;;;;;;;29.10;53.00;;;;;;5036849;28;19912;-79
2023/05/20 11:55:09;;;;;;;;;;;29.50;52.80;;;;;;5031183;28;19931;-78
2023/05/20 11:57:36;;;;;;;;;;;29.70;52.10;;;;;;5037191;28;19915;-78
2023/05/20 12:00:05;;;;;;;;;;;29.90;52.40;;;;;;5028324;28;19966;-78
2023/05/20 12:02:31;;;;;;;;;;;30.00;51.40;;;;;;5029153;28;19916;-78
2023/05/20 12:04:57;;;;;;;;;;;30.20;51.10;;;;;;5028508;28;20020;-78
2023/05/20 12:07:22;;;;;;;;;;;30.70;51.20;;;;;;5035543;28;19909;-77
2023/05/20 12:09:48;;;;;;;;;;;31.20;50.50;;;;;;5029642;28;19952;-77
2023/05/20 12:12:13;;;;;;;;;;;31.90;49.50;;;;;;5031810;28;20350;-77
2023/05/20 12:14:39;;;;;;;;;;;32.30;49.60;;;;;;5033297;28;19915;-77
2023/05/20 12:17:04;;;;;;;;;;;32.70;48.80;;;;;;5033709;28;19913;-77
2023/05/20 12:19:30;;;;;;;;;;;32.90;48.50;;;;;;5033414;28;20374;-77
2023/05/20 12:21:55;;;;;;;;;;;32.70;48.60;;;;;;5032746;28;19913;-78
2023/05/20 12:24:21;;;;;;;;;;;32.30;48.80;;;;;;5033691;28;19908;-77
2023/05/20 12:26:46;;;;;;;;;;;31.90;49.10;;;;;;5033681;28;19974;-77
2023/05/20 12:29:12;;;;;;;;;;;31.10;50.90;;;;;;5030354;28;19909;-78
2023/05/20 12:31:37;;;;;;;;;;;30.10;51.20;;;;;;5028423;28;20322;-77
2023/05/20 12:34:03;;;;;;;;;;;29.30;52.00;;;;;;5040599;28;19909;-77
2023/05/20 12:36:28;;;;;;;;;;;28.50;53.40;;;;;;5045215;28;19917;-78
2023/05/20 12:38:54;;;;;;;;;;;27.80;54.30;;;;;;5029221;28;20419;-77
2023/05/20 12:41:20;;;;;;;;;;;27.00;54.60;;;;;;5037614;28;19916;-77
2023/05/20 12:43:46;;;;;;;;;;;26.20;55.70;;;;;;5035129;28;20409;-77
2023/05/20 12:46:11;;;;;;;;;;;25.30;56.90;;;;;;5029356;28;19917;-77
2023/05/20 12:48:37;;;;;;;;;;;24.50;57.30;;;;;;5039088;28;19952;-78
2023/05/20 12:51:02;;;;;;;;;;;23.90;58.40;;;;;;5038586;28;19931;-78
2023/05/20 12:53:28;;;;;;;;;;;23.40;59.30;;;;;;5038405;28;20456;-78
2023/05/20 12:55:53;;;;;;;;;;;22.90;61.60;;;;;;5042030;28;19999;-78
2023/05/20 12:58:19;;;;;;;;;;;22.30;62.90;;;;;;5033988;28;20513;-78
2023/05/20 13:00:45;;;;;;;;;;;22.10;63.80;;;;;;5033308;28;20383;-78
2023/05/20 13:03:10;;;;;;;;;;;22.40;63.90;;;;;;5030665;28;19909;-77
2023/05/20 13:05:36;;;;;;;;;;;22.90;63.10;;;;;;5033155;28;20008;-78
2023/05/20 13:08:02;;;;;;;;;;;23.60;62.80;;;;;;5039653;28;19909;-78
2023/05/20 13:10:27;;;;;;;;;;;24.40;60.10;;;;;;5034395;28;19916;-78
2023/05/20 13:12:53;;;;;;;;;;;25.00;59.80;;;;;;5030925;28;20275;-77
2023/05/20 13:15:18;;;;;;;;;;;25.60;59.00;;;;;;5028601;28;19952;-77
2023/05/20 13:17:44;;;;;;;;;;;26.30;58.20;;;;;;5032465;28;19919;-78
2023/05/20 13:20:10;;;;;;;;;;;26.90;56.40;;;;;;5022701;28;19909;-78
2023/05/20 13:22:36;;;;;;;;;;;27.50;55.90;;;;;;5033006;28;19916;-77
2023/05/20 13:25:03;;;;;;;;;;;27.90;54.10;;;;;;5024614;28;19932;-77
2023/05/20 13:27:28;;;;;;;;;;;27.80;54.20;;;;;;5032731;28;20444;-77
2023/05/20 13:29:54;;;;;;;;;;;27.90;55.20;;;;;;5038968;28;19916;-77
2023/05/20 13:32:19;;;;;;;;;;;28.10;55.10;;;;;;5033187;28;19917;-78
2023/05/20 13:34:45;;;;;;;;;;;28.50;54.60;;;;;;5042862;28;19970;-78
2023/05/20 13:37:10;;;;;;;;;;;28.90;53.80;;;;;;5034922;28;19928;-78
2023/05/20 13:39:36;;;;;;;;;;;29.30;52.40;;;;;;5037000;28;20015;-78
2023/05/20 13:42:03;;;;;;;;;;;29.20;52.30;;;;;;5034189;28;19913;-78
2023/05/20 13:44:28;;;;;;;;;;;28.90;53.40;;;;;;5034308;28;19919;-77
2023/05/20 13:46:54;;;;;;;;;;;28.30;54.30;;;;;;5026257;28;19921;-77
2023/05/20 13:49:20;;;;;;;;;;;28.00;53.50;;;;;;5030463;28;19908;-75
2023/05/20 13:51:46;;;;;;;;;;;28.00;54.80;;;;;;5034605;28;19951;-75
2023/05/20 13:54:11;;;;;;;;;;;27.90;53.90;;;;;;5033871;28;20375;-75
2023/05/20 13:56:37;;;;;;;;;;;27.50;54.70;;;;;;5031162;28;19909;-75
2023/05/20 13:59:02;;;;;;;;;;;27.40;55.50;;;;;;5033364;28;19916;-75
2023/05/20 14:01:29;;;;;;;;;;;27.40;56.10;;;;;;5034965;28;19913;-75
2023/05/20 14:03:55;;;;;;;;;;;27.30;56.00;;;;;;5031976;28;20398;-74
2023/05/20 14:06:20;;;;;;;;;;;27.20;57.60;;;;;;5023416;28;19921;-74
2023/05/20 14:08:46;;;;;;;;;;;27.40;57.40;;;;;;5025350;28;19913;-76
2023/05/20 14:11:11;;;;;;;;;;;27.40;56.70;;;;;;5030061;28;19917;-76